Latest Coastal Weather Observations for Derby

IDW60701

Issued at 11:13 am WST Saturday 5 December 2020 (issued every 10 minutes, with the page automatically refreshed every 10 minutes)

About coastal observations | Map of coastal stations | Coastal observations for WA | Marine services | Other Formats
Station Details ID: 003032 Name: DERBY AERO Lat: -17.37 Lon: 123.66 Height: 6.2 m
Data from the previous 72 hours. | See also: Recent months at Derby
Date/Time
WST
Wind Sea
Height
m
Swell Vis
km
Cloud Weather Temp
°C
Press
MSL
hPa
Rain since
9am
mm
Dir  Spd
kts
Gust
kts
Height
m
Period
s
Dir
05/11:00am SE 7 11 - - - - 10 Partly cloudy - 37.7 1006.7 0.0
05/10:30am S 8 12 - - - - 10 - - 36.1 1007.3 0.0
05/10:00am SSE 9 15 - - - - 10 - - 35.2 1007.8 0.0
05/09:30am S 7 11 - - - - 10 - - 34.3 1008.3 0.0
05/09:00am S 7 11 - - - - 10 - - 33.7 1008.9 0.2
05/08:30am SSW 5 7 - - - - 10 - - 33.5 1008.9 0.2
05/08:00am SE 4 6 - - - - 10 - - 33.1 1008.9 0.2
05/07:30am N 1 5 - - - - 10 - - 32.0 1009.1 0.2
05/07:00am E 3 4 - - - - 10 - - 30.8 1009.0 0.2
05/06:30am ESE 2 3 - - - - 10 - - 29.3 1008.8 0.2
05/06:00am SSE 5 6 - - - - 10 - - 27.8 1008.4 0.2
05/05:30am SE 5 6 - - - - 10 - - 27.1 1008.3 0.2
05/05:00am SSE 5 7 - - - - 10 - - 26.9 1008.3 0.2
05/04:30am SSE 6 7 - - - - 10 - - 27.0 1008.5 0.2
05/04:00am SSE 8 11 - - - - 10 - - 27.1 1008.0 0.2
05/03:30am ESE 5 7 - - - - 10 Partly cloudy - 28.0 1007.5 0.2
05/03:00am NE 2 4 - - - - 10 Mostly cloudy - 28.2 1007.4 0.2
05/02:30am SW 3 4 - - - - 10 - - 27.9 1007.3 0.2
05/02:00am WNW 6 8 - - - - 10 - - 27.9 1006.9 0.2
05/01:30am NW 7 8 - - - - 10 - - 28.4 1007.1 0.2
05/01:00am NW 7 8 - - - - 10 Partly cloudy - 28.4 1007.4 0.2
05/12:30am WNW 8 9 - - - - 10 - - 28.5 1007.5 0.2
05/12:00am WNW 5 6 - - - - 10 Cloudy - 28.8 1007.7 0.2
 
Date/Time
WST
Wind Sea
Height
m
Swell Vis
km
Cloud Weather Temp
°C
Press
MSL
hPa
Rain since
9am
mm
Dir  Spd
kts
Gust
kts
Height
m
Period
s
Dir
04/11:30pm W 3 4 - - - - 10 - - 28.4 1007.7 0.2
04/11:00pm W 3 5 - - - - 10 - - 28.5 1008.0 0.2
04/10:30pm SSW 3 4 - - - - 10 - - 28.7 1007.8 0.2
04/10:00pm WSW 3 5 - - - - 10 - - 28.7 1007.6 0.2
04/09:30pm W 7 9 - - - - 10 - - 28.8 1007.8 0.2
04/09:00pm WSW 10 13 - - - - 10 Mostly cloudy Recent precip. 28.8 1007.8 0.2
04/08:30pm W 6 10 - - - - 10 - - 29.6 1007.6 0.0
04/08:00pm S 14 19 - - - - 10 Partly cloudy - 28.5 1007.7 0.0
04/07:30pm SE 9 11 - - - - 10 Partly cloudy - 30.6 1007.4 0.0
04/07:00pm ENE 5 7 - - - - 10 Partly cloudy - 31.2 1006.5 0.0
04/06:30pm E 7 9 - - - - 10 Partly cloudy - 31.1 1006.0 0.0
04/06:00pm N 7 10 - - - - 10 Cloudy - 33.2 1005.2 0.0
04/05:30pm WSW 7 9 - - - - 10 Partly cloudy - 31.2 1004.6 0.0
04/05:00pm SW 12 15 - - - - 10 - - 30.3 1004.2 0.0
04/04:30pm SSW 12 17 - - - - 10 Partly cloudy - 31.1 1004.4 0.0
04/04:12pm SSW 15 21 - - - - 10 Partly cloudy - 31.8 1004.0 0.0
04/04:00pm NNW 9 13 - - - - 10 Partly cloudy - 36.8 1004.0 0.0
04/03:30pm WNW 12 15 - - - - 10 Partly cloudy - 37.8 1003.5 0.0
04/03:00pm W 5 8 - - - - 10 Mostly cloudy - 37.1 1003.5 0.0
04/02:30pm SW 6 11 - - - - 10 Partly cloudy - 38.0 1004.0 0.0
04/02:00pm WNW 6 14 - - - - 10 Partly cloudy - 36.5 1004.5 0.0
04/01:30pm S 8 19 - - - - 10 Partly cloudy - 37.2 1005.4 0.0
04/01:00pm WSW 6 11 - - - - 10 Partly cloudy - 37.1 1005.7 0.0
04/12:30pm SSW 8 14 - - - - 10 - - 36.9 1006.3 0.0
04/12:00pm S 9 21 - - - - 10 - - 36.7 1006.6 0.0
04/11:30am SW 10 15 - - - - 10 - - 36.0 1007.1 0.0
04/11:00am SW 9 14 - - - - 10 - - 35.8 1007.8 0.0
04/10:30am WSW 10 16 - - - - 10 - - 35.3 1008.3 0.0
04/10:00am W 8 11 - - - - 10 - - 34.1 1009.2 0.0
04/09:30am SSW 7 10 - - - - 10 - - 33.5 1009.4 0.0
04/09:00am SSW 6 9 - - - - 10 - - 32.8 1009.8 0.2
04/08:30am SW 5 8 - - - - 10 - - 31.7 1010.2 0.2
04/08:00am WSW 5 7 - - - - 10 - - 30.6 1010.3 0.2
04/07:30am SSW 5 7 - - - - 10 - - 29.5 1010.3 0.2
04/07:00am SSW 6 8 - - - - 10 - - 29.1 1010.1 0.2
04/06:30am SSW 5 6 - - - - 10 - - 28.4 1010.2 0.2
04/06:00am S 3 6 - - - - 10 - - 27.1 1010.0 0.2
04/05:30am S 5 6 - - - - 10 - - 26.3 1009.9 0.2
04/05:00am S 5 6 - - - - 10 - - 26.2 1009.7 0.2
04/04:30am S 6 8 - - - - 10 - - 26.3 1009.8 0.2
04/04:00am SSE 5 6 - - - - 10 - - 26.5 1009.7 0.2
04/03:30am SE 6 7 - - - - 10 - - 26.8 1009.5 0.2
04/03:00am SE 9 12 - - - - 10 - - 27.3 1009.5 0.2
04/02:30am ESE 6 9 - - - - 10 Partly cloudy - 27.3 1009.5 0.2
04/02:00am ESE 14 21 - - - - 10 Partly cloudy - 26.9 1009.4 0.2
04/01:55am SE 9 21 - - - - 10 Partly cloudy - 26.7 1010.1 0.2
04/01:30am SW 4 5 - - - - 10 - - 26.7 1008.5 0.2
04/01:00am SW 4 6 - - - - 10 - - 26.8 1008.6 0.2
04/12:30am SSW 5 7 - - - - 10 - - 26.9 1008.7 0.2
04/12:00am SW 7 9 - - - - 10 - - 27.1 1008.9 0.2
 
Date/Time
WST
Wind Sea
Height
m
Swell Vis
km
Cloud Weather Temp
°C
Press
MSL
hPa
Rain since
9am
mm
Dir  Spd
kts
Gust
kts
Height
m
Period
s
Dir
03/11:30pm SSW 9 12 - - - - 10 - - 27.4 1009.3 0.2
03/11:00pm S 6 8 - - - - 10 - - 27.4 1009.7 0.2
03/10:30pm S 6 8 - - - - 10 - - 27.7 1009.8 0.2
03/10:00pm S 4 6 - - - - 10 - - 28.0 1009.7 0.2
03/09:30pm SW 6 7 - - - - 10 - - 28.6 1009.3 0.2
03/09:00pm W 5 6 - - - - 10 - - 28.1 1009.0 0.2
03/08:30pm WSW 3 3 - - - - 10 - - 28.6 1008.8 0.2
03/08:00pm WSW 3 4 - - - - 10 - - 28.7 1008.1 0.2
03/07:30pm W 3 4 - - - - 10 - - 29.0 1007.6 0.2
03/07:00pm WNW 3 4 - - - - 10 - - 29.0 1007.5 0.2
03/06:30pm WNW 5 6 - - - - 10 - - 28.9 1007.0 0.2
03/06:00pm WNW 5 7 - - - - 10 - - 29.1 1006.7 0.2
03/05:30pm WNW 4 5 - - - - 10 - - 29.6 1006.3 0.2
03/05:00pm W 6 7 - - - - 10 - - 29.8 1006.1 0.2
03/04:30pm WNW 5 6 - - - - 10 - - 30.0 1006.3 0.2
03/04:00pm NW 6 8 - - - - 10 - - 30.1 1006.4 0.2
03/03:30pm NW 5 8 - - - - 10 - - 29.9 1006.5 0.2
03/03:00pm W 4 7 - - - - 10 Mostly cloudy - 29.8 1006.5 0.2
03/02:30pm WNW 5 11 - - - - 10 - - 29.2 1006.8 0.2
03/02:00pm WNW 6 7 - - - - 10 - - 28.5 1007.3 0.2
03/01:30pm W 8 10 - - - - 10 - - 27.7 1007.9 0.2
03/01:00pm W 12 15 - - - - 10 Partly cloudy - 27.4 1008.5 0.2
03/12:30pm WNW 7 8 - - - - 10 Partly cloudy - 26.4 1008.7 0.2
03/12:00pm N 6 9 - - - - 10 Partly cloudy Showers 26.2 1009.2 0.0
03/11:30am NNE 17 28 - - - - 10 Partly cloudy - 25.5 1010.2 0.0
03/11:20am NNE 25 35 - - - - 10 Partly cloudy - 27.0 1010.4 0.0
03/11:17am NNE 27 36 - - - - 10 Partly cloudy - 27.0 1010.5 0.0
03/11:00am NNE 12 32 - - - - 10 Partly cloudy - 32.3 1010.0 0.0
03/10:30am NE 8 14 - - - - 10 Partly cloudy - 35.1 1009.3 0.0
03/10:00am NNE 6 13 - - - - 10 Partly cloudy - 35.0 1009.7 0.0
03/09:30am NNE 1 7 - - - - 10 - - 34.1 1009.8 0.0
03/09:00am ESE 4 6 - - - - 10 Partly cloudy - 33.6 1009.5 0.8
03/08:30am SE 9 11 - - - - 10 - - 33.3 1009.3 0.8
03/08:00am SE 11 14 - - - - 10 - - 32.3 1009.2 0.8
03/07:30am ESE 11 14 - - - - 10 - - 31.3 1009.7 0.8
03/07:00am ESE 7 10 - - - - 10 - - 29.9 1010.0 0.8
03/06:30am ESE 5 7 - - - - 10 - - 29.3 1009.4 0.8
03/06:00am CALM 0 0 - - - - 10 - - 28.4 1008.7 0.8
03/05:30am CALM 0 4 - - - - 10 - - 27.4 1008.3 0.8
03/05:00am CALM 0 0 - - - - 10 - - 27.3 1008.4 0.8
03/04:30am CALM 0 0 - - - - 10 - - 27.3 1008.1 0.8
03/04:00am CALM 0 3 - - - - 10 Partly cloudy - 27.6 1008.1 0.8
03/03:30am NNW 3 5 - - - - 10 Partly cloudy - 27.6 1008.2 0.8
03/03:00am CALM 0 0 - - - - 10 - - 28.0 1008.1 0.8
03/02:30am SSE 3 4 - - - - 10 Partly cloudy - 28.2 1008.0 0.8
03/02:00am ESE 3 5 - - - - 10 - - 28.1 1007.8 0.8
03/01:30am SSE 4 5 - - - - 10 - - 28.3 1007.6 0.8
03/01:00am S 4 5 - - - - 10 Partly cloudy - 28.6 1007.6 0.8
03/12:30am WSW 3 4 - - - - 10 Partly cloudy - 28.7 1007.7 0.8
03/12:00am SW 5 7 - - - - 10 Cloudy - 28.9 1007.9 0.8
 
Date/Time
WST
Wind Sea
Height
m
Swell Vis
km
Cloud Weather Temp
°C
Press
MSL
hPa
Rain since
9am
mm
Dir  Spd
kts
Gust
kts
Height
m
Period
s
Dir
02/11:30pm SSW 7 9 - - - - 10 - - 29.3 1008.3 0.8
02/11:00pm SSW 7 9 - - - - 10 Partly cloudy - 29.7 1008.6 0.8
02/10:30pm S 9 12 - - - - 10 - - 29.6 1008.9 0.8
02/10:00pm SSW 6 8 - - - - 10 - - 29.9 1008.9 0.8
02/09:30pm SW 6 8 - - - - 10 - - 30.0 1008.6 0.8
02/09:00pm WSW 6 9 - - - - 10 Mostly clear - 30.5 1008.6 0.8
02/08:30pm NW 13 17 - - - - 10 Partly cloudy - 31.1 1008.2 0.8
02/08:00pm NW 13 15 - - - - 10 Partly cloudy - 31.3 1007.8 0.8
02/07:30pm NNW 12 15 - - - - 10 - - 31.2 1007.4 0.8
02/07:00pm NW 12 13 - - - - 10 - - 31.1 1006.6 0.8
02/06:30pm NW 12 15 - - - - 10 - - 31.1 1006.1 0.8
02/06:00pm NW 10 12 - - - - 10 - - 31.2 1005.6 0.8
02/05:30pm NW 13 15 - - - - 10 - - 31.3 1005.0 0.8
02/05:00pm NW 14 17 - - - - 10 - - 32.2 1004.8 0.8
02/04:30pm NW 9 13 - - - - 10 - - 32.7 1004.4 0.8
02/04:00pm W 11 13 - - - - 10 Partly cloudy - 32.8 1004.5 0.8
02/03:30pm W 6 9 - - - - 10 Partly cloudy - 33.0 1005.1 0.8
02/03:01pm NW 12 30 - - - - 9 Partly cloudy - 31.3 1005.0 0.6
02/03:00pm NW 11 23 - - - - 9 Mostly cloudy Rain 31.9 1005.1 0.6
02/02:30pm W 13 17 - - - - 10 Partly cloudy - 35.6 1004.8 0.0
02/02:00pm WNW 13 15 - - - - 10 - - 36.2 1005.3 0.0
02/01:30pm NW 14 19 - - - - 10 Partly cloudy - 35.8 1005.8 0.0
02/01:00pm WNW 14 19 - - - - 10 Partly cloudy - 36.0 1005.9 0.0
02/12:30pm W 11 15 - - - - 10 Partly cloudy - 37.6 1006.2 0.0
02/12:00pm WNW 10 16 - - - - 10 Mostly clear - 36.5 1006.7 0.0
02/11:30am NW 9 15 - - - - 10 - - 35.8 1007.1 0.0

Other formats

Comma delimited format used in spreadsheet applications
http://www.bom.gov.au/fwo/IDW60701/IDW60701.95205.axf

JavaScript Object Notation format (JSON) in row-major order
http://www.bom.gov.au/fwo/IDW60701/IDW60701.95205.json

Data quality

Most of these data are generated automatically and are frequently updated. Quality checks on data are not normally performed. It is possible for incorrect values to appear. Refer to information at About Latest Weather Observations and please check the disclaimer before using these data.